sensor_id;sensor_type;location;lat;lon;timestamp;temperature;humidity
16271;DHT22;8243;49.048;8.396;2023-11-18T00:01:02;7.10;99.90
16271;DHT22;8243;49.048;8.396;2023-11-18T00:03:29;7.10;99.90
16271;DHT22;8243;49.048;8.396;2023-11-18T00:05:54;7.10;99.90
16271;DHT22;8243;49.048;8.396;2023-11-18T00:08:20;7.10;99.90
16271;DHT22;8243;49.048;8.396;2023-11-18T00:10:45;7.10;99.90
16271;DHT22;8243;49.048;8.396;2023-11-18T00:13:12;7.00;99.90
16271;DHT22;8243;49.048;8.396;2023-11-18T00:15:38;7.10;99.90
16271;DHT22;8243;49.048;8.396;2023-11-18T00:18:04;7.00;99.90
16271;DHT22;8243;49.048;8.396;2023-11-18T00:20:29;7.00;99.90
16271;DHT22;8243;49.048;8.396;2023-11-18T00:22:57;7.10;99.90
16271;DHT22;8243;49.048;8.396;2023-11-18T00:25:23;7.10;99.90
16271;DHT22;8243;49.048;8.396;2023-11-18T00:27:49;7.10;99.90
16271;DHT22;8243;49.048;8.396;2023-11-18T00:30:15;7.10;99.90
16271;DHT22;8243;49.048;8.396;2023-11-18T00:32:40;7.10;99.90
16271;DHT22;8243;49.048;8.396;2023-11-18T00:35:06;7.10;99.90
16271;DHT22;8243;49.048;8.396;2023-11-18T00:37:32;7.10;99.90
16271;DHT22;8243;49.048;8.396;2023-11-18T00:39:58;7.10;99.90
16271;DHT22;8243;49.048;8.396;2023-11-18T00:42:24;7.10;99.90
16271;DHT22;8243;49.048;8.396;2023-11-18T00:44:49;7.20;99.90
16271;DHT22;8243;49.048;8.396;2023-11-18T00:47:15;7.20;99.90
16271;DHT22;8243;49.048;8.396;2023-11-18T00:49:41;7.10;99.90
16271;DHT22;8243;49.048;8.396;2023-11-18T00:52:07;7.20;99.90
16271;DHT22;8243;49.048;8.396;2023-11-18T00:54:34;7.20;99.90
16271;DHT22;8243;49.048;8.396;2023-11-18T00:57:00;7.30;99.90
16271;DHT22;8243;49.048;8.396;2023-11-18T00:59:25;7.30;99.90
16271;DHT22;8243;49.048;8.396;2023-11-18T01:01:52;7.30;99.90
16271;DHT22;8243;49.048;8.396;2023-11-18T01:04:18;7.20;99.90
16271;DHT22;8243;49.048;8.396;2023-11-18T01:06:45;7.20;99.90
16271;DHT22;8243;49.048;8.396;2023-11-18T01:09:14;7.20;99.90
16271;DHT22;8243;49.048;8.396;2023-11-18T01:11:41;7.20;99.90
16271;DHT22;8243;49.048;8.396;2023-11-18T01:14:08;7.20;99.90
16271;DHT22;8243;49.048;8.396;2023-11-18T01:16:33;7.20;99.90
16271;DHT22;8243;49.048;8.396;2023-11-18T01:19:00;7.30;99.90
16271;DHT22;8243;49.048;8.396;2023-11-18T01:21:25;7.30;99.90
16271;DHT22;8243;49.048;8.396;2023-11-18T01:23:52;7.20;99.90
16271;DHT22;8243;49.048;8.396;2023-11-18T01:26:18;7.20;99.90
16271;DHT22;8243;49.048;8.396;2023-11-18T01:28:44;7.10;99.90
16271;DHT22;8243;49.048;8.396;2023-11-18T01:31:11;7.10;99.90
16271;DHT22;8243;49.048;8.396;2023-11-18T01:33:37;7.10;99.90
16271;DHT22;8243;49.048;8.396;2023-11-18T01:36:04;7.00;99.90
16271;DHT22;8243;49.048;8.396;2023-11-18T01:38:30;7.10;99.90
16271;DHT22;8243;49.048;8.396;2023-11-18T01:40:56;7.00;99.90
16271;DHT22;8243;49.048;8.396;2023-11-18T01:43:22;7.00;99.90
16271;DHT22;8243;49.048;8.396;2023-11-18T01:45:48;7.00;99.90
16271;DHT22;8243;49.048;8.396;2023-11-18T01:48:14;6.90;99.90
16271;DHT22;8243;49.048;8.396;2023-11-18T01:50:41;6.80;99.90
16271;DHT22;8243;49.048;8.396;2023-11-18T01:53:11;6.70;99.90
16271;DHT22;8243;49.048;8.396;2023-11-18T01:55:39;6.70;99.90
16271;DHT22;8243;49.048;8.396;2023-11-18T01:58:05;6.70;99.90
16271;DHT22;8243;49.048;8.396;2023-11-18T02:00:41;6.60;99.90
16271;DHT22;8243;49.048;8.396;2023-11-18T02:03:08;6.50;99.90
16271;DHT22;8243;49.048;8.396;2023-11-18T02:05:35;6.50;99.90
16271;DHT22;8243;49.048;8.396;2023-11-18T02:08:02;6.50;99.90
16271;DHT22;8243;49.048;8.396;2023-11-18T02:10:34;6.50;99.90
16271;DHT22;8243;49.048;8.396;2023-11-18T02:15:35;6.50;99.90
16271;DHT22;8243;49.048;8.396;2023-11-18T02:18:04;6.60;99.90
16271;DHT22;8243;49.048;8.396;2023-11-18T02:20:32;6.60;99.90
16271;DHT22;8243;49.048;8.396;2023-11-18T02:22:58;6.70;99.90
16271;DHT22;8243;49.048;8.396;2023-11-18T02:25:27;6.70;99.90
16271;DHT22;8243;49.048;8.396;2023-11-18T02:27:54;6.70;99.90
16271;DHT22;8243;49.048;8.396;2023-11-18T02:30:19;6.80;99.90
16271;DHT22;8243;49.048;8.396;2023-11-18T02:32:59;6.90;99.90
16271;DHT22;8243;49.048;8.396;2023-11-18T02:35:36;6.90;99.90
16271;DHT22;8243;49.048;8.396;2023-11-18T02:38:03;6.90;99.90
16271;DHT22;8243;49.048;8.396;2023-11-18T02:40:36;6.90;99.90
16271;DHT22;8243;49.048;8.396;2023-11-18T02:43:04;6.90;99.90
16271;DHT22;8243;49.048;8.396;2023-11-18T02:45:31;6.90;99.90
16271;DHT22;8243;49.048;8.396;2023-11-18T02:47:57;6.90;99.90
16271;DHT22;8243;49.048;8.396;2023-11-18T02:50:26;7.00;99.90
16271;DHT22;8243;49.048;8.396;2023-11-18T02:52:53;7.00;99.90
16271;DHT22;8243;49.048;8.396;2023-11-18T02:55:19;7.00;99.90
16271;DHT22;8243;49.048;8.396;2023-11-18T02:57:46;7.10;99.90
16271;DHT22;8243;49.048;8.396;2023-11-18T03:00:12;7.10;99.90
16271;DHT22;8243;49.048;8.396;2023-11-18T03:02:44;7.10;99.90
16271;DHT22;8243;49.048;8.396;2023-11-18T03:05:11;7.10;99.90
16271;DHT22;8243;49.048;8.396;2023-11-18T03:07:44;7.20;99.90
16271;DHT22;8243;49.048;8.396;2023-11-18T03:10:15;7.20;99.90
16271;DHT22;8243;49.048;8.396;2023-11-18T03:12:50;7.20;99.90
16271;DHT22;8243;49.048;8.396;2023-11-18T03:15:16;7.20;99.90
16271;DHT22;8243;49.048;8.396;2023-11-18T03:17:45;7.20;99.90
16271;DHT22;8243;49.048;8.396;2023-11-18T03:20:14;7.20;99.90
16271;DHT22;8243;49.048;8.396;2023-11-18T03:22:46;7.10;99.90
16271;DHT22;8243;49.048;8.396;2023-11-18T03:25:12;7.00;99.90
16271;DHT22;8243;49.048;8.396;2023-11-18T03:27:39;7.00;99.90
16271;DHT22;8243;49.048;8.396;2023-11-18T03:30:06;6.90;99.90
16271;DHT22;8243;49.048;8.396;2023-11-18T03:32:32;7.00;99.90
16271;DHT22;8243;49.048;8.396;2023-11-18T03:34:58;7.00;99.90
16271;DHT22;8243;49.048;8.396;2023-11-18T03:37:26;7.00;99.90
16271;DHT22;8243;49.048;8.396;2023-11-18T03:39:53;7.10;99.90
16271;DHT22;8243;49.048;8.396;2023-11-18T03:42:18;7.10;99.90
16271;DHT22;8243;49.048;8.396;2023-11-18T03:44:44;7.10;99.90
16271;DHT22;8243;49.048;8.396;2023-11-18T03:47:14;7.10;99.90
16271;DHT22;8243;49.048;8.396;2023-11-18T03:49:43;7.10;99.90
16271;DHT22;8243;49.048;8.396;2023-11-18T03:52:08;7.10;99.90
16271;DHT22;8243;49.048;8.396;2023-11-18T03:54:34;7.10;99.90
16271;DHT22;8243;49.048;8.396;2023-11-18T03:57:00;7.10;99.90
16271;DHT22;8243;49.048;8.396;2023-11-18T03:59:26;7.20;99.90
16271;DHT22;8243;49.048;8.396;2023-11-18T04:01:52;7.20;99.90
16271;DHT22;8243;49.048;8.396;2023-11-18T04:04:18;7.20;99.90
16271;DHT22;8243;49.048;8.396;2023-11-18T04:06:44;7.20;99.90
16271;DHT22;8243;49.048;8.396;2023-11-18T04:09:12;7.20;99.90
16271;DHT22;8243;49.048;8.396;2023-11-18T04:11:38;7.20;99.90
16271;DHT22;8243;49.048;8.396;2023-11-18T04:14:04;7.20;99.90
16271;DHT22;8243;49.048;8.396;2023-11-18T04:16:30;7.20;99.90
16271;DHT22;8243;49.048;8.396;2023-11-18T04:18:55;7.20;99.90
16271;DHT22;8243;49.048;8.396;2023-11-18T04:21:21;7.20;99.90
16271;DHT22;8243;49.048;8.396;2023-11-18T04:23:47;7.20;99.90
16271;DHT22;8243;49.048;8.396;2023-11-18T04:26:13;7.20;99.90
16271;DHT22;8243;49.048;8.396;2023-11-18T04:28:39;7.20;99.90
16271;DHT22;8243;49.048;8.396;2023-11-18T04:31:05;7.30;99.90
16271;DHT22;8243;49.048;8.396;2023-11-18T04:33:32;7.30;99.90
16271;DHT22;8243;49.048;8.396;2023-11-18T04:35:59;7.30;99.90
16271;DHT22;8243;49.048;8.396;2023-11-18T04:38:25;7.20;99.90
16271;DHT22;8243;49.048;8.396;2023-11-18T04:40:52;7.20;99.90
16271;DHT22;8243;49.048;8.396;2023-11-18T04:43:19;7.30;99.90
16271;DHT22;8243;49.048;8.396;2023-11-18T04:45:46;7.20;99.90
16271;DHT22;8243;49.048;8.396;2023-11-18T04:48:11;7.20;99.90
16271;DHT22;8243;49.048;8.396;2023-11-18T04:50:39;7.10;99.90
16271;DHT22;8243;49.048;8.396;2023-11-18T04:53:05;7.10;99.90
16271;DHT22;8243;49.048;8.396;2023-11-18T04:55:34;7.00;99.90
16271;DHT22;8243;49.048;8.396;2023-11-18T04:58:00;7.00;99.90
16271;DHT22;8243;49.048;8.396;2023-11-18T05:00:26;6.90;99.90
16271;DHT22;8243;49.048;8.396;2023-11-18T05:02:53;6.90;99.90
16271;DHT22;8243;49.048;8.396;2023-11-18T05:05:19;6.80;99.90
16271;DHT22;8243;49.048;8.396;2023-11-18T05:07:45;6.90;99.90
16271;DHT22;8243;49.048;8.396;2023-11-18T05:10:10;6.80;99.90
16271;DHT22;8243;49.048;8.396;2023-11-18T05:12:43;6.80;99.90
16271;DHT22;8243;49.048;8.396;2023-11-18T05:15:19;6.80;99.90
16271;DHT22;8243;49.048;8.396;2023-11-18T05:17:44;6.70;99.90
16271;DHT22;8243;49.048;8.396;2023-11-18T05:20:11;6.70;99.90
16271;DHT22;8243;49.048;8.396;2023-11-18T05:22:37;6.70;99.90
16271;DHT22;8243;49.048;8.396;2023-11-18T05:25:03;6.60;99.90
16271;DHT22;8243;49.048;8.396;2023-11-18T05:27:32;6.60;99.90
16271;DHT22;8243;49.048;8.396;2023-11-18T05:29:58;6.60;99.90
16271;DHT22;8243;49.048;8.396;2023-11-18T05:32:27;6.60;99.90
16271;DHT22;8243;49.048;8.396;2023-11-18T05:34:53;6.60;99.90
16271;DHT22;8243;49.048;8.396;2023-11-18T05:37:20;6.70;99.90
16271;DHT22;8243;49.048;8.396;2023-11-18T05:39:47;6.70;99.90
16271;DHT22;8243;49.048;8.396;2023-11-18T05:42:15;6.60;99.90
16271;DHT22;8243;49.048;8.396;2023-11-18T05:44:41;6.60;99.90
16271;DHT22;8243;49.048;8.396;2023-11-18T05:47:08;6.50;99.90
16271;DHT22;8243;49.048;8.396;2023-11-18T05:49:37;6.50;99.90
16271;DHT22;8243;49.048;8.396;2023-11-18T05:52:04;6.40;99.90
16271;DHT22;8243;49.048;8.396;2023-11-18T05:54:29;6.40;99.90
16271;DHT22;8243;49.048;8.396;2023-11-18T05:56:56;6.30;99.90
16271;DHT22;8243;49.048;8.396;2023-11-18T05:59:21;6.20;99.90
16271;DHT22;8243;49.048;8.396;2023-11-18T06:01:49;6.20;99.90
16271;DHT22;8243;49.048;8.396;2023-11-18T06:04:14;6.20;99.90
16271;DHT22;8243;49.048;8.396;2023-11-18T06:06:41;6.10;99.90
16271;DHT22;8243;49.048;8.396;2023-11-18T06:09:06;6.10;99.90
16271;DHT22;8243;49.048;8.396;2023-11-18T06:11:40;6.10;99.90
16271;DHT22;8243;49.048;8.396;2023-11-18T06:14:07;6.10;99.90
16271;DHT22;8243;49.048;8.396;2023-11-18T06:16:34;6.00;99.90
16271;DHT22;8243;49.048;8.396;2023-11-18T06:19:01;6.10;99.90
16271;DHT22;8243;49.048;8.396;2023-11-18T06:21:30;6.10;99.90
16271;DHT22;8243;49.048;8.396;2023-11-18T06:24:00;6.00;99.90
16271;DHT22;8243;49.048;8.396;2023-11-18T06:26:27;6.10;99.90
16271;DHT22;8243;49.048;8.396;2023-11-18T06:28:54;6.20;99.90
16271;DHT22;8243;49.048;8.396;2023-11-18T06:31:21;6.20;99.90
16271;DHT22;8243;49.048;8.396;2023-11-18T06:33:49;6.20;99.90
16271;DHT22;8243;49.048;8.396;2023-11-18T06:38:43;6.10;99.90
16271;DHT22;8243;49.048;8.396;2023-11-18T06:41:12;6.10;99.90
16271;DHT22;8243;49.048;8.396;2023-11-18T06:43:41;6.10;99.90
16271;DHT22;8243;49.048;8.396;2023-11-18T06:46:32;6.20;99.90
16271;DHT22;8243;49.048;8.396;2023-11-18T06:49:03;6.30;99.90
16271;DHT22;8243;49.048;8.396;2023-11-18T06:51:30;6.20;99.90
16271;DHT22;8243;49.048;8.396;2023-11-18T06:53:57;6.30;99.90
16271;DHT22;8243;49.048;8.396;2023-11-18T06:56:24;6.30;99.90
16271;DHT22;8243;49.048;8.396;2023-11-18T06:58:49;6.30;99.90
16271;DHT22;8243;49.048;8.396;2023-11-18T07:01:16;6.30;99.90
16271;DHT22;8243;49.048;8.396;2023-11-18T07:03:42;6.30;99.90
16271;DHT22;8243;49.048;8.396;2023-11-18T07:06:09;6.40;99.90
16271;DHT22;8243;49.048;8.396;2023-11-18T07:08:37;6.50;99.90
16271;DHT22;8243;49.048;8.396;2023-11-18T07:11:05;6.50;99.90
16271;DHT22;8243;49.048;8.396;2023-11-18T07:13:31;6.50;99.90
16271;DHT22;8243;49.048;8.396;2023-11-18T07:16:00;6.50;99.90
16271;DHT22;8243;49.048;8.396;2023-11-18T07:18:29;6.70;99.90
16271;DHT22;8243;49.048;8.396;2023-11-18T07:20:58;6.70;99.90
16271;DHT22;8243;49.048;8.396;2023-11-18T07:23:24;6.80;99.90
16271;DHT22;8243;49.048;8.396;2023-11-18T07:25:49;6.70;99.90
16271;DHT22;8243;49.048;8.396;2023-11-18T07:28:16;6.80;99.90
16271;DHT22;8243;49.048;8.396;2023-11-18T07:30:42;6.80;99.90
16271;DHT22;8243;49.048;8.396;2023-11-18T07:33:19;6.80;99.90
16271;DHT22;8243;49.048;8.396;2023-11-18T07:35:46;6.90;99.90
16271;DHT22;8243;49.048;8.396;2023-11-18T07:38:14;6.90;99.90
16271;DHT22;8243;49.048;8.396;2023-11-18T07:40:39;6.80;99.90
16271;DHT22;8243;49.048;8.396;2023-11-18T07:43:08;6.90;99.90
16271;DHT22;8243;49.048;8.396;2023-11-18T07:45:35;7.00;99.90
16271;DHT22;8243;49.048;8.396;2023-11-18T07:48:08;7.00;99.90
16271;DHT22;8243;49.048;8.396;2023-11-18T07:50:38;7.00;99.90
16271;DHT22;8243;49.048;8.396;2023-11-18T07:53:07;7.10;99.90
16271;DHT22;8243;49.048;8.396;2023-11-18T07:55:33;7.20;99.90
16271;DHT22;8243;49.048;8.396;2023-11-18T07:58:09;7.30;99.90
16271;DHT22;8243;49.048;8.396;2023-11-18T08:00:42;7.30;99.90
16271;DHT22;8243;49.048;8.396;2023-11-18T08:03:08;7.40;99.90
16271;DHT22;8243;49.048;8.396;2023-11-18T08:05:41;7.20;99.90
16271;DHT22;8243;49.048;8.396;2023-11-18T08:08:07;7.20;99.90
16271;DHT22;8243;49.048;8.396;2023-11-18T08:10:34;7.20;99.90
16271;DHT22;8243;49.048;8.396;2023-11-18T08:13:04;7.30;99.90
16271;DHT22;8243;49.048;8.396;2023-11-18T08:15:29;7.50;99.90
16271;DHT22;8243;49.048;8.396;2023-11-18T08:17:56;7.60;99.90
16271;DHT22;8243;49.048;8.396;2023-11-18T08:20:22;7.60;99.90
16271;DHT22;8243;49.048;8.396;2023-11-18T08:22:50;7.70;99.90
16271;DHT22;8243;49.048;8.396;2023-11-18T08:25:15;7.70;99.90
16271;DHT22;8243;49.048;8.396;2023-11-18T08:27:43;7.70;99.90
16271;DHT22;8243;49.048;8.396;2023-11-18T08:30:11;7.80;99.90
16271;DHT22;8243;49.048;8.396;2023-11-18T08:32:38;7.90;99.90
16271;DHT22;8243;49.048;8.396;2023-11-18T08:35:07;7.90;99.90
16271;DHT22;8243;49.048;8.396;2023-11-18T08:37:36;8.00;99.90
16271;DHT22;8243;49.048;8.396;2023-11-18T08:40:03;8.10;99.90
16271;DHT22;8243;49.048;8.396;2023-11-18T08:42:29;8.20;99.90
16271;DHT22;8243;49.048;8.396;2023-11-18T08:44:57;8.30;99.90
16271;DHT22;8243;49.048;8.396;2023-11-18T08:47:25;8.30;99.90
16271;DHT22;8243;49.048;8.396;2023-11-18T08:49:51;8.30;99.90
16271;DHT22;8243;49.048;8.396;2023-11-18T08:52:16;8.40;99.90
16271;DHT22;8243;49.048;8.396;2023-11-18T08:54:43;8.50;99.90
16271;DHT22;8243;49.048;8.396;2023-11-18T08:57:28;8.60;99.90
16271;DHT22;8243;49.048;8.396;2023-11-18T09:00:16;8.60;99.90
16271;DHT22;8243;49.048;8.396;2023-11-18T09:03:01;8.70;99.90
16271;DHT22;8243;49.048;8.396;2023-11-18T09:05:27;8.50;99.90
16271;DHT22;8243;49.048;8.396;2023-11-18T09:07:57;8.10;99.90
16271;DHT22;8243;49.048;8.396;2023-11-18T09:10:23;8.30;99.90
16271;DHT22;8243;49.048;8.396;2023-11-18T09:12:49;8.50;99.90
16271;DHT22;8243;49.048;8.396;2023-11-18T09:15:15;8.70;99.90
16271;DHT22;8243;49.048;8.396;2023-11-18T09:17:48;8.70;99.90
16271;DHT22;8243;49.048;8.396;2023-11-18T09:20:14;8.70;99.90
16271;DHT22;8243;49.048;8.396;2023-11-18T09:22:46;8.90;99.90
16271;DHT22;8243;49.048;8.396;2023-11-18T09:25:14;8.70;99.90
16271;DHT22;8243;49.048;8.396;2023-11-18T09:27:39;8.90;99.90
16271;DHT22;8243;49.048;8.396;2023-11-18T09:30:07;8.80;99.90
16271;DHT22;8243;49.048;8.396;2023-11-18T09:32:42;9.00;99.90
16271;DHT22;8243;49.048;8.396;2023-11-18T09:35:08;9.10;99.90
16271;DHT22;8243;49.048;8.396;2023-11-18T09:37:41;9.20;99.90
16271;DHT22;8243;49.048;8.396;2023-11-18T09:40:11;9.20;99.90
16271;DHT22;8243;49.048;8.396;2023-11-18T09:42:38;9.20;99.90
16271;DHT22;8243;49.048;8.396;2023-11-18T09:45:05;9.20;99.90
16271;DHT22;8243;49.048;8.396;2023-11-18T09:47:42;9.40;99.90
16271;DHT22;8243;49.048;8.396;2023-11-18T09:50:10;9.60;99.90
16271;DHT22;8243;49.048;8.396;2023-11-18T09:52:42;9.60;99.90
16271;DHT22;8243;49.048;8.396;2023-11-18T09:55:25;9.70;99.90
16271;DHT22;8243;49.048;8.396;2023-11-18T09:58:04;9.80;99.90
16271;DHT22;8243;49.048;8.396;2023-11-18T10:00:35;9.70;99.90
16271;DHT22;8243;49.048;8.396;2023-11-18T10:03:04;9.60;99.90
16271;DHT22;8243;49.048;8.396;2023-11-18T10:05:34;9.90;99.90
16271;DHT22;8243;49.048;8.396;2023-11-18T10:08:02;9.90;99.90
16271;DHT22;8243;49.048;8.396;2023-11-18T10:10:31;9.80;99.90
16271;DHT22;8243;49.048;8.396;2023-11-18T10:13:01;10.00;99.90
16271;DHT22;8243;49.048;8.396;2023-11-18T10:15:30;10.00;99.90
16271;DHT22;8243;49.048;8.396;2023-11-18T10:17:57;10.10;99.90
16271;DHT22;8243;49.048;8.396;2023-11-18T10:23:11;10.20;99.90
16271;DHT22;8243;49.048;8.396;2023-11-18T10:25:49;10.30;99.90
16271;DHT22;8243;49.048;8.396;2023-11-18T10:28:32;10.50;99.90
16271;DHT22;8243;49.048;8.396;2023-11-18T10:31:05;10.30;99.90
16271;DHT22;8243;49.048;8.396;2023-11-18T10:33:38;10.40;99.90
16271;DHT22;8243;49.048;8.396;2023-11-18T10:36:17;10.30;99.90
16271;DHT22;8243;49.048;8.396;2023-11-18T10:38:48;10.30;99.90
16271;DHT22;8243;49.048;8.396;2023-11-18T10:41:15;10.20;99.90
16271;DHT22;8243;49.048;8.396;2023-11-18T10:43:42;10.20;99.90
16271;DHT22;8243;49.048;8.396;2023-11-18T10:46:11;10.10;99.90
16271;DHT22;8243;49.048;8.396;2023-11-18T10:48:45;10.20;99.90
16271;DHT22;8243;49.048;8.396;2023-11-18T10:51:17;10.10;99.90
16271;DHT22;8243;49.048;8.396;2023-11-18T10:53:50;10.20;99.90
16271;DHT22;8243;49.048;8.396;2023-11-18T10:56:24;10.00;99.90
16271;DHT22;8243;49.048;8.396;2023-11-18T10:58:53;10.10;99.90
16271;DHT22;8243;49.048;8.396;2023-11-18T11:01:32;10.00;99.90
16271;DHT22;8243;49.048;8.396;2023-11-18T11:03:58;10.00;99.90
16271;DHT22;8243;49.048;8.396;2023-11-18T11:06:25;10.00;98.90
16271;DHT22;8243;49.048;8.396;2023-11-18T11:08:52;10.00;98.70
16271;DHT22;8243;49.048;8.396;2023-11-18T11:11:21;10.00;98.70
16271;DHT22;8243;49.048;8.396;2023-11-18T11:13:49;10.00;98.90
16271;DHT22;8243;49.048;8.396;2023-11-18T11:16:19;10.00;97.20
16271;DHT22;8243;49.048;8.396;2023-11-18T11:18:48;10.10;96.30
16271;DHT22;8243;49.048;8.396;2023-11-18T11:21:21;10.00;97.20
16271;DHT22;8243;49.048;8.396;2023-11-18T11:24:06;10.00;98.70
16271;DHT22;8243;49.048;8.396;2023-11-18T11:27:13;10.00;97.30
16271;DHT22;8243;49.048;8.396;2023-11-18T11:30:02;10.00;97.60
16271;DHT22;8243;49.048;8.396;2023-11-18T11:32:43;10.00;98.20
16271;DHT22;8243;49.048;8.396;2023-11-18T11:35:18;10.10;98.40
16271;DHT22;8243;49.048;8.396;2023-11-18T11:37:46;10.10;98.30
16271;DHT22;8243;49.048;8.396;2023-11-18T11:40:14;9.90;99.30
16271;DHT22;8243;49.048;8.396;2023-11-18T11:42:51;9.80;98.40
16271;DHT22;8243;49.048;8.396;2023-11-18T11:45:24;9.80;98.50
16271;DHT22;8243;49.048;8.396;2023-11-18T11:47:58;9.80;98.60
16271;DHT22;8243;49.048;8.396;2023-11-18T11:53:44;9.90;99.40
16271;DHT22;8243;49.048;8.396;2023-11-18T11:56:11;9.90;97.80
16271;DHT22;8243;49.048;8.396;2023-11-18T11:58:45;9.90;99.70
16271;DHT22;8243;49.048;8.396;2023-11-18T12:01:27;9.70;99.20
16271;DHT22;8243;49.048;8.396;2023-11-18T12:04:03;9.70;99.10
16271;DHT22;8243;49.048;8.396;2023-11-18T12:06:33;9.70;99.60
16271;DHT22;8243;49.048;8.396;2023-11-18T12:09:01;9.70;99.00
16271;DHT22;8243;49.048;8.396;2023-11-18T12:11:34;9.60;99.20
16271;DHT22;8243;49.048;8.396;2023-11-18T12:14:06;9.50;99.90
16271;DHT22;8243;49.048;8.396;2023-11-18T12:16:57;9.50;99.90
16271;DHT22;8243;49.048;8.396;2023-11-18T12:19:30;9.50;99.90
16271;DHT22;8243;49.048;8.396;2023-11-18T12:22:02;9.50;99.90
16271;DHT22;8243;49.048;8.396;2023-11-18T12:24:38;9.50;99.90
16271;DHT22;8243;49.048;8.396;2023-11-18T12:27:05;9.60;99.90
16271;DHT22;8243;49.048;8.396;2023-11-18T12:29:45;9.70;99.90
16271;DHT22;8243;49.048;8.396;2023-11-18T12:32:11;9.70;99.90
16271;DHT22;8243;49.048;8.396;2023-11-18T12:34:55;9.70;99.90
16271;DHT22;8243;49.048;8.396;2023-11-18T12:37:39;9.80;99.90
16271;DHT22;8243;49.048;8.396;2023-11-18T12:40:45;9.90;99.90
16271;DHT22;8243;49.048;8.396;2023-11-18T12:43:16;9.90;99.90
16271;DHT22;8243;49.048;8.396;2023-11-18T12:48:13;10.00;99.90
16271;DHT22;8243;49.048;8.396;2023-11-18T12:50:43;10.10;99.90
16271;DHT22;8243;49.048;8.396;2023-11-18T12:53:11;9.90;99.90
16271;DHT22;8243;49.048;8.396;2023-11-18T12:55:40;10.00;99.90
16271;DHT22;8243;49.048;8.396;2023-11-18T12:58:07;10.00;99.90
16271;DHT22;8243;49.048;8.396;2023-11-18T13:00:32;10.00;99.90
16271;DHT22;8243;49.048;8.396;2023-11-18T13:03:01;9.90;99.90
16271;DHT22;8243;49.048;8.396;2023-11-18T13:05:27;9.90;99.90
16271;DHT22;8243;49.048;8.396;2023-11-18T13:07:56;9.80;99.90
16271;DHT22;8243;49.048;8.396;2023-11-18T13:10:24;9.80;99.90
16271;DHT22;8243;49.048;8.396;2023-11-18T13:12:53;9.80;99.90
16271;DHT22;8243;49.048;8.396;2023-11-18T13:15:19;9.90;99.90
16271;DHT22;8243;49.048;8.396;2023-11-18T13:18:17;9.90;99.90
16271;DHT22;8243;49.048;8.396;2023-11-18T13:20:57;9.90;99.90
16271;DHT22;8243;49.048;8.396;2023-11-18T13:23:25;9.70;99.90
16271;DHT22;8243;49.048;8.396;2023-11-18T13:25:54;9.70;99.90
16271;DHT22;8243;49.048;8.396;2023-11-18T13:28:24;9.70;99.90
16271;DHT22;8243;49.048;8.396;2023-11-18T13:30:50;9.70;99.90
16271;DHT22;8243;49.048;8.396;2023-11-18T13:33:17;9.70;99.90
16271;DHT22;8243;49.048;8.396;2023-11-18T13:35:43;9.60;99.90
16271;DHT22;8243;49.048;8.396;2023-11-18T13:38:09;9.70;99.90
16271;DHT22;8243;49.048;8.396;2023-11-18T13:40:46;9.80;99.90
16271;DHT22;8243;49.048;8.396;2023-11-18T13:43:15;9.80;99.90
16271;DHT22;8243;49.048;8.396;2023-11-18T13:45:41;9.80;99.90
16271;DHT22;8243;49.048;8.396;2023-11-18T13:48:08;9.80;99.90
16271;DHT22;8243;49.048;8.396;2023-11-18T13:50:37;9.90;99.90
16271;DHT22;8243;49.048;8.396;2023-11-18T13:53:04;10.00;99.90
16271;DHT22;8243;49.048;8.396;2023-11-18T13:55:33;10.00;99.90
16271;DHT22;8243;49.048;8.396;2023-11-18T13:58:01;10.20;99.90
16271;DHT22;8243;49.048;8.396;2023-11-18T14:00:30;10.20;99.90
16271;DHT22;8243;49.048;8.396;2023-11-18T14:02:58;10.40;99.90
16271;DHT22;8243;49.048;8.396;2023-11-18T14:05:24;10.40;99.90
16271;DHT22;8243;49.048;8.396;2023-11-18T14:07:57;10.40;99.90
16271;DHT22;8243;49.048;8.396;2023-11-18T14:10:33;10.30;99.90
16271;DHT22;8243;49.048;8.396;2023-11-18T14:13:03;10.30;99.90
16271;DHT22;8243;49.048;8.396;2023-11-18T14:15:32;10.30;99.90
16271;DHT22;8243;49.048;8.396;2023-11-18T14:18:03;10.40;99.90
16271;DHT22;8243;49.048;8.396;2023-11-18T14:20:30;10.30;99.90
16271;DHT22;8243;49.048;8.396;2023-11-18T14:22:57;10.30;99.90
16271;DHT22;8243;49.048;8.396;2023-11-18T14:25:23;10.30;99.90
16271;DHT22;8243;49.048;8.396;2023-11-18T14:27:50;10.30;99.90
16271;DHT22;8243;49.048;8.396;2023-11-18T14:30:16;10.30;99.90
16271;DHT22;8243;49.048;8.396;2023-11-18T14:32:43;10.30;99.90
16271;DHT22;8243;49.048;8.396;2023-11-18T14:35:08;10.20;99.90
16271;DHT22;8243;49.048;8.396;2023-11-18T14:37:39;10.00;99.90
16271;DHT22;8243;49.048;8.396;2023-11-18T14:40:17;10.00;99.90
16271;DHT22;8243;49.048;8.396;2023-11-18T14:42:48;10.10;99.90
16271;DHT22;8243;49.048;8.396;2023-11-18T14:45:14;10.10;99.90
16271;DHT22;8243;49.048;8.396;2023-11-18T14:47:41;10.10;99.90
16271;DHT22;8243;49.048;8.396;2023-11-18T14:50:07;10.10;99.90
16271;DHT22;8243;49.048;8.396;2023-11-18T14:52:42;10.10;99.90
16271;DHT22;8243;49.048;8.396;2023-11-18T14:55:09;10.10;99.90
16271;DHT22;8243;49.048;8.396;2023-11-18T14:57:38;10.10;99.90
16271;DHT22;8243;49.048;8.396;2023-11-18T15:00:06;10.20;99.90
16271;DHT22;8243;49.048;8.396;2023-11-18T15:02:33;10.10;99.90
16271;DHT22;8243;49.048;8.396;2023-11-18T15:05:00;10.10;99.90
16271;DHT22;8243;49.048;8.396;2023-11-18T15:07:28;10.10;99.90
16271;DHT22;8243;49.048;8.396;2023-11-18T15:09:55;10.00;99.90
16271;DHT22;8243;49.048;8.396;2023-11-18T15:12:20;9.80;99.90
16271;DHT22;8243;49.048;8.396;2023-11-18T15:14:46;9.80;99.90
16271;DHT22;8243;49.048;8.396;2023-11-18T15:17:12;9.80;99.90
16271;DHT22;8243;49.048;8.396;2023-11-18T15:19:39;9.80;99.90
16271;DHT22;8243;49.048;8.396;2023-11-18T15:22:04;9.60;99.90
16271;DHT22;8243;49.048;8.396;2023-11-18T15:24:30;9.60;99.90
16271;DHT22;8243;49.048;8.396;2023-11-18T15:26:57;9.60;99.90
16271;DHT22;8243;49.048;8.396;2023-11-18T15:29:26;9.50;99.90
16271;DHT22;8243;49.048;8.396;2023-11-18T15:31:58;9.50;99.90
16271;DHT22;8243;49.048;8.396;2023-11-18T15:34:24;9.40;99.90
16271;DHT22;8243;49.048;8.396;2023-11-18T15:36:50;9.40;99.90
16271;DHT22;8243;49.048;8.396;2023-11-18T15:39:17;9.50;99.90
16271;DHT22;8243;49.048;8.396;2023-11-18T15:41:42;9.50;99.90
16271;DHT22;8243;49.048;8.396;2023-11-18T15:44:08;9.30;99.90
16271;DHT22;8243;49.048;8.396;2023-11-18T15:46:37;9.30;99.90
16271;DHT22;8243;49.048;8.396;2023-11-18T15:49:03;9.40;99.90
16271;DHT22;8243;49.048;8.396;2023-11-18T15:51:28;9.30;99.90
16271;DHT22;8243;49.048;8.396;2023-11-18T15:53:56;9.30;99.90
16271;DHT22;8243;49.048;8.396;2023-11-18T15:56:21;9.30;99.90
16271;DHT22;8243;49.048;8.396;2023-11-18T15:58:48;9.20;99.90
16271;DHT22;8243;49.048;8.396;2023-11-18T16:01:14;9.20;99.90
16271;DHT22;8243;49.048;8.396;2023-11-18T16:03:39;9.20;99.90
16271;DHT22;8243;49.048;8.396;2023-11-18T16:06:06;9.20;99.90
16271;DHT22;8243;49.048;8.396;2023-11-18T16:08:32;9.30;99.90
16271;DHT22;8243;49.048;8.396;2023-11-18T16:10:59;9.30;99.90
16271;DHT22;8243;49.048;8.396;2023-11-18T16:13:26;9.30;99.90
16271;DHT22;8243;49.048;8.396;2023-11-18T16:15:51;9.20;99.90
16271;DHT22;8243;49.048;8.396;2023-11-18T16:18:18;9.20;99.90
16271;DHT22;8243;49.048;8.396;2023-11-18T16:20:45;9.10;99.90
16271;DHT22;8243;49.048;8.396;2023-11-18T16:23:10;9.20;99.90